createdAt,value
2019-06-07T00:00:57.859Z,16.60
2019-06-07T00:03:30.237Z,22.45
2019-06-07T00:06:00.248Z,13.88
2019-06-07T00:08:30.681Z,13.40
2019-06-07T00:11:01.045Z,18.32
2019-06-07T00:13:31.380Z,14.85
2019-06-07T00:16:03.771Z,13.78
2019-06-07T00:18:34.143Z,16.60
2019-06-07T00:21:04.828Z,15.32
2019-06-07T00:23:35.131Z,17.30
2019-06-07T00:26:05.631Z,17.77
2019-06-07T00:28:36.059Z,13.88
2019-06-07T00:31:06.542Z,13.88
2019-06-07T00:33:36.917Z,14.90
2019-06-07T00:36:07.310Z,12.47
2019-06-07T00:38:37.643Z,14.07
2019-06-07T00:41:08.110Z,20.72
2019-06-07T00:43:38.483Z,18.35
2019-06-07T00:46:08.907Z,14.95
2019-06-07T00:48:39.213Z,14.87
2019-06-07T00:51:09.572Z,17.37
2019-06-07T00:53:39.888Z,15.28
2019-06-07T00:56:11.398Z,15.93
2019-06-07T00:58:42.055Z,14.78
2019-06-07T01:01:13.714Z,14.47
2019-06-07T01:03:44.679Z,12.75
2019-06-07T01:06:17.452Z,15.63
2019-06-07T01:08:47.422Z,15.48
2019-06-07T01:11:20.587Z,13.85
2019-06-07T01:13:49.809Z,12.78
2019-06-07T01:16:22.224Z,17.92
2019-06-07T01:18:53.244Z,13.55
2019-06-07T01:21:28.659Z,14.80
2019-06-07T01:24:10.682Z,17.35
2019-06-07T01:26:30.197Z,17.48
2019-06-07T01:28:59.639Z,18.60
2019-06-07T01:31:31.646Z,16.42
2019-06-07T01:34:02.339Z,15.43
2019-06-07T01:36:33.977Z,17.95
2019-06-07T01:39:05.402Z,16.07
2019-06-07T01:41:36.061Z,17.67
2019-06-07T01:44:06.407Z,18.65
2019-06-07T01:46:36.813Z,17.27
2019-06-07T01:49:07.197Z,20.90
2019-06-07T01:51:37.608Z,16.75
2019-06-07T01:56:42.081Z,27.60
2019-06-07T01:59:12.455Z,19.45
2019-06-07T02:01:42.870Z,17.40
2019-06-07T02:04:13.170Z,20.52
2019-06-07T02:06:43.564Z,23.73
2019-06-07T02:09:13.899Z,20.57
2019-06-07T02:11:44.358Z,23.27
2019-06-07T02:14:15.663Z,20.48
2019-06-07T02:16:45.930Z,23.52
2019-06-07T02:19:16.347Z,18.20
2019-06-07T02:21:46.725Z,20.45
2019-06-07T02:24:17.202Z,22.55
2019-06-07T02:26:47.602Z,20.05
2019-06-07T02:29:18.158Z,18.17
2019-06-07T02:31:49.628Z,19.80
2019-06-07T02:34:21.456Z,16.77
2019-06-07T02:36:52.038Z,19.65
2019-06-07T02:39:24.019Z,18.75
2019-06-07T02:41:54.384Z,24.67
2019-06-07T02:44:29.859Z,16.48
2019-06-07T02:46:56.738Z,18.00
2019-06-07T02:49:31.384Z,19.17
2019-06-07T02:52:00.376Z,21.45
2019-06-07T02:54:36.171Z,18.75
2019-06-07T02:57:02.759Z,17.55
2019-06-07T02:59:54.845Z,17.17
2019-06-07T03:02:05.145Z,17.87
2019-06-07T03:04:42.052Z,15.20
2019-06-07T03:07:12.267Z,13.10
2019-06-07T03:09:43.482Z,15.28
2019-06-07T03:12:16.478Z,15.83
2019-06-07T03:14:47.893Z,19.70
2019-06-07T03:17:38.898Z,17.37
2019-06-07T03:20:11.598Z,19.70
2019-06-07T03:22:44.016Z,11.73
2019-06-07T03:25:14.883Z,14.60
2019-06-07T03:27:49.944Z,15.38
2019-06-07T03:30:41.561Z,17.98
2019-06-07T03:32:52.173Z,13.78
2019-06-07T03:35:23.795Z,16.87
2019-06-07T03:37:54.107Z,15.25
2019-06-07T03:40:24.465Z,19.92
2019-06-07T03:42:54.733Z,19.82
2019-06-07T03:45:25.097Z,13.78
2019-06-07T03:47:55.533Z,18.50
2019-06-07T03:50:28.319Z,19.00
2019-06-07T03:52:57.845Z,16.67
2019-06-07T03:55:30.368Z,19.45
2019-06-07T03:58:30.902Z,17.95
2019-06-07T04:00:34.901Z,21.15
2019-06-07T04:03:04.505Z,21.77
2019-06-07T04:05:38.853Z,15.58
2019-06-07T04:08:06.848Z,19.42
2019-06-07T04:10:55.915Z,15.18
2019-06-07T04:13:09.568Z,14.40
2019-06-07T04:15:41.459Z,17.30
2019-06-07T04:18:12.079Z,19.27
2019-06-07T04:20:42.502Z,19.60
2019-06-07T04:23:27.667Z,21.85
2019-06-07T04:25:45.838Z,16.45
2019-06-07T04:28:16.174Z,20.05
2019-06-07T04:30:47.361Z,14.05
2019-06-07T04:33:17.682Z,18.35
2019-06-07T04:35:48.103Z,29.87
2019-06-07T04:38:18.412Z,17.40
2019-06-07T04:40:50.678Z,27.00
2019-06-07T04:43:20.979Z,18.57
2019-06-07T04:45:52.104Z,20.90
2019-06-07T04:48:22.606Z,22.02
2019-06-07T04:50:55.427Z,18.80
2019-06-07T04:53:25.833Z,19.23
2019-06-07T04:55:56.898Z,17.80
2019-06-07T04:58:27.267Z,21.52
2019-06-07T05:01:03.219Z,12.95
2019-06-07T05:03:34.524Z,17.57
2019-06-07T05:06:01.591Z,15.63
2019-06-07T05:08:35.149Z,17.12
2019-06-07T05:11:04.653Z,16.97
2019-06-07T05:13:38.432Z,16.67
2019-06-07T05:16:07.753Z,15.32
2019-06-07T05:18:42.626Z,18.05
2019-06-07T05:21:10.064Z,19.00
2019-06-07T05:24:05.657Z,24.18
2019-06-07T05:26:12.681Z,16.02
2019-06-07T05:28:43.346Z,15.80
2019-06-07T05:31:13.930Z,17.98
2019-06-07T05:33:44.259Z,16.87
2019-06-07T05:36:14.619Z,24.15
2019-06-07T05:38:45.287Z,15.15
2019-06-07T05:41:15.745Z,14.78
2019-06-07T05:44:00.235Z,19.90
2019-06-07T05:46:18.898Z,15.85
2019-06-07T05:48:49.249Z,12.80
2019-06-07T05:51:19.688Z,19.70
2019-06-07T05:53:50.159Z,22.42
2019-06-07T05:56:20.567Z,17.73
2019-06-07T05:58:50.904Z,16.95
2019-06-07T06:03:53.320Z,19.95
2019-06-07T06:06:23.684Z,19.98
2019-06-07T06:09:12.833Z,19.82
2019-06-07T06:11:42.955Z,18.65
2019-06-07T06:14:07.378Z,20.60
2019-06-07T06:16:30.679Z,13.20
2019-06-07T06:19:01.150Z,14.68
2019-06-07T06:21:31.523Z,13.13
2019-06-07T06:24:03.457Z,13.70
2019-06-07T06:26:33.795Z,22.90
2019-06-07T06:29:04.585Z,13.25
2019-06-07T06:31:34.972Z,14.58
2019-06-07T06:34:05.530Z,13.08
2019-06-07T06:36:37.348Z,14.78
2019-06-07T06:39:08.534Z,15.35
2019-06-07T06:41:51.532Z,14.53
2019-06-07T06:44:10.977Z,10.18
2019-06-07T06:46:47.217Z,13.58
2019-06-07T06:49:14.610Z,18.82
2019-06-07T06:51:50.031Z,20.75
2019-06-07T06:54:37.246Z,14.07
2019-06-07T06:56:52.043Z,15.55
2019-06-07T06:59:37.966Z,13.45
2019-06-07T07:01:52.955Z,12.18
2019-06-07T07:04:23.768Z,15.13
2019-06-07T07:06:55.340Z,12.23
2019-06-07T07:09:28.577Z,15.28
2019-06-07T07:12:11.150Z,17.25
2019-06-07T07:14:31.148Z,15.53
2019-06-07T07:17:01.490Z,19.57
2019-06-07T07:19:31.841Z,13.25
2019-06-07T07:22:03.785Z,14.78
2019-06-07T07:24:34.187Z,16.40
2019-06-07T07:27:04.580Z,9.95
2019-06-07T07:29:34.904Z,14.25
2019-06-07T07:32:05.304Z,10.00
2019-06-07T07:34:37.309Z,8.33
2019-06-07T07:37:07.594Z,13.48
2019-06-07T07:39:37.946Z,11.95
2019-06-07T07:42:20.791Z,13.00
2019-06-07T07:44:40.407Z,12.65
2019-06-07T07:47:10.839Z,11.70
2019-06-07T07:49:41.176Z,11.93
2019-06-07T07:52:11.625Z,9.35
2019-06-07T07:54:41.990Z,11.43
2019-06-07T07:57:12.386Z,9.45
2019-06-07T08:00:00.530Z,14.80
2019-06-07T08:02:14.799Z,15.23
2019-06-07T08:07:17.338Z,9.13
2019-06-07T08:09:50.526Z,14.68
2019-06-07T08:12:19.664Z,13.62
2019-06-07T08:14:51.284Z,9.00
2019-06-07T08:17:22.026Z,11.35
2019-06-07T08:19:55.020Z,7.92
2019-06-07T08:22:24.359Z,7.75
2019-06-07T08:24:55.980Z,9.13
2019-06-07T08:27:27.139Z,11.03
2019-06-07T08:30:15.745Z,10.60
2019-06-07T08:32:29.850Z,8.55
2019-06-07T08:35:05.836Z,7.95
2019-06-07T08:38:14.167Z,13.50
2019-06-07T08:40:07.142Z,10.55
2019-06-07T08:42:59.486Z,12.50
2019-06-07T08:45:13.964Z,11.90
2019-06-07T08:47:44.658Z,6.03
2019-06-07T08:50:17.769Z,7.45
2019-06-07T08:52:48.040Z,10.55
2019-06-07T08:55:18.987Z,8.43
2019-06-07T08:57:49.360Z,13.05
2019-06-07T09:00:43.307Z,11.93
2019-06-07T09:02:53.179Z,9.63
2019-06-07T09:05:24.029Z,9.48
2019-06-07T09:08:21.196Z,9.95
2019-06-07T09:10:26.978Z,8.95
2019-06-07T09:13:03.074Z,13.10
2019-06-07T09:15:32.393Z,9.08
2019-06-07T09:18:37.787Z,7.12
2019-06-07T09:20:46.568Z,12.33
2019-06-07T09:23:17.970Z,6.80
2019-06-07T09:26:04.911Z,9.38
2019-06-07T09:28:21.855Z,8.33
2019-06-07T09:30:52.781Z,12.55
2019-06-07T09:33:23.266Z,8.88
2019-06-07T09:35:53.762Z,13.62
2019-06-07T09:38:26.532Z,7.05
2019-06-07T09:40:57.610Z,7.92
2019-06-07T09:44:00.957Z,12.35
2019-06-07T09:46:02.062Z,8.93
2019-06-07T09:49:09.927Z,13.50
2019-06-07T09:51:09.586Z,8.48
2019-06-07T09:53:36.308Z,10.20
2019-06-07T09:56:11.176Z,6.20
2019-06-07T09:58:54.418Z,6.72
2019-06-07T10:01:13.682Z,7.62
2019-06-07T10:03:43.261Z,7.85
2019-06-07T10:06:14.094Z,10.48
2019-06-07T10:11:19.532Z,6.70
2019-06-07T10:13:49.869Z,9.50
2019-06-07T10:16:20.262Z,10.18
2019-06-07T10:18:50.604Z,17.90
2019-06-07T10:21:20.958Z,9.65
2019-06-07T10:23:51.527Z,6.62
2019-06-07T10:26:21.897Z,14.95
2019-06-07T10:28:53.578Z,7.08
2019-06-07T10:31:24.250Z,6.85
2019-06-07T10:33:54.640Z,7.67
2019-06-07T10:36:24.994Z,10.53
2019-06-07T10:38:55.318Z,12.80
2019-06-07T10:41:25.839Z,8.45
2019-06-07T10:43:56.421Z,5.87
2019-06-07T10:46:26.827Z,7.10
2019-06-07T10:48:57.202Z,6.05
2019-06-07T10:51:27.519Z,6.67
2019-06-07T10:53:57.947Z,9.15
2019-06-07T10:56:28.272Z,12.78
2019-06-07T10:58:58.596Z,15.18
2019-06-07T11:01:28.958Z,11.25
2019-06-07T11:03:59.363Z,11.68
2019-06-07T11:06:31.408Z,6.75
2019-06-07T11:09:02.196Z,5.60
2019-06-07T11:11:33.775Z,8.05
2019-06-07T11:14:04.514Z,7.28
2019-06-07T11:16:34.818Z,6.00
2019-06-07T11:19:06.057Z,8.85
2019-06-07T11:21:36.644Z,7.08
2019-06-07T11:24:08.064Z,7.80
2019-06-07T11:26:38.639Z,8.90
2019-06-07T11:29:10.729Z,8.05
2019-06-07T11:31:41.899Z,8.85
2019-06-07T11:34:12.530Z,8.93
2019-06-07T11:36:43.205Z,5.58
2019-06-07T11:39:15.145Z,7.75
2019-06-07T11:41:45.846Z,5.42
2019-06-07T11:44:17.208Z,4.95
2019-06-07T11:46:47.759Z,4.30
2019-06-07T11:49:20.300Z,5.20
2019-06-07T11:51:50.530Z,6.78
2019-06-07T11:54:20.993Z,6.55
2019-06-07T11:56:51.368Z,3.55
2019-06-07T11:59:22.994Z,6.78
2019-06-07T12:01:53.376Z,8.68
2019-06-07T12:04:34.346Z,4.45
2019-06-07T12:06:57.256Z,3.83
2019-06-07T12:09:28.187Z,8.08
2019-06-07T12:11:58.581Z,5.58
2019-06-07T12:14:28.964Z,3.50
2019-06-07T12:17:00.027Z,6.53
2019-06-07T12:19:30.655Z,5.33
2019-06-07T12:22:00.968Z,4.55
2019-06-07T12:24:31.347Z,6.80
2019-06-07T12:27:01.824Z,8.58
2019-06-07T12:29:34.018Z,4.83
2019-06-07T12:32:04.365Z,10.63
2019-06-07T12:34:35.866Z,4.80
2019-06-07T12:37:06.216Z,7.35
2019-06-07T12:39:36.535Z,5.00
2019-06-07T12:42:06.990Z,9.60
2019-06-07T12:44:37.431Z,6.67
2019-06-07T12:47:07.767Z,5.12
2019-06-07T12:49:38.100Z,5.05
2019-06-07T12:52:08.433Z,5.47
2019-06-07T12:54:38.785Z,5.92
2019-06-07T12:57:09.177Z,6.37
2019-06-07T12:59:39.922Z,7.30
2019-06-07T13:02:11.456Z,5.37
2019-06-07T13:04:41.983Z,6.50
2019-06-07T13:07:12.346Z,5.00
2019-06-07T13:09:42.658Z,5.15
2019-06-07T13:12:13.079Z,4.37
2019-06-07T13:14:43.513Z,8.63
2019-06-07T13:17:13.922Z,5.55
2019-06-07T13:19:44.267Z,7.37
2019-06-07T13:22:16.097Z,8.95
2019-06-07T13:24:46.678Z,7.12
2019-06-07T13:27:18.217Z,5.53
2019-06-07T13:29:48.759Z,6.00
2019-06-07T13:32:19.581Z,7.60
2019-06-07T13:34:50.043Z,3.75
2019-06-07T13:37:21.124Z,6.60
2019-06-07T13:39:52.700Z,4.97
2019-06-07T13:42:24.659Z,9.78
2019-06-07T13:44:55.233Z,5.08
2019-06-07T13:47:25.598Z,6.62
2019-06-07T13:49:55.940Z,7.33
2019-06-07T13:52:26.281Z,9.23
2019-06-07T13:54:56.678Z,12.35
2019-06-07T13:57:28.079Z,8.30
2019-06-07T13:59:58.581Z,8.85
2019-06-07T14:02:29.862Z,8.83
2019-06-07T14:05:00.287Z,6.05
2019-06-07T14:07:30.780Z,6.45
2019-06-07T14:10:01.149Z,7.28
2019-06-07T14:12:31.551Z,8.18
2019-06-07T14:15:04.576Z,5.70
2019-06-07T14:17:34.939Z,4.72
2019-06-07T14:20:06.778Z,8.20
2019-06-07T14:22:37.748Z,8.68
2019-06-07T14:25:09.094Z,5.20
2019-06-07T14:27:39.611Z,7.47
2019-06-07T14:30:10.290Z,6.65
2019-06-07T14:32:40.645Z,6.83
2019-06-07T14:35:11.430Z,9.03
2019-06-07T14:37:41.673Z,6.35
2019-06-07T14:40:12.555Z,6.47
2019-06-07T14:42:42.902Z,8.53
2019-06-07T14:45:13.843Z,6.10
2019-06-07T14:47:44.285Z,8.88
2019-06-07T14:50:16.362Z,6.58
2019-06-07T14:52:46.615Z,6.85
2019-06-07T14:55:17.440Z,6.62
2019-06-07T14:57:48.618Z,5.92
2019-06-07T15:00:19.726Z,9.63
2019-06-07T15:02:50.057Z,9.25
2019-06-07T15:05:24.618Z,10.90
2019-06-07T15:07:54.993Z,11.12
2019-06-07T15:10:26.611Z,9.78
2019-06-07T15:12:57.089Z,6.87
2019-06-07T15:15:28.332Z,9.20
2019-06-07T15:18:00.263Z,13.18
2019-06-07T15:20:32.075Z,9.88
2019-06-07T15:23:02.597Z,9.43
2019-06-07T15:25:33.287Z,11.53
2019-06-07T15:28:03.675Z,15.53
2019-06-07T15:30:34.083Z,10.93
2019-06-07T15:33:04.848Z,13.88
2019-06-07T15:35:36.031Z,16.05
2019-06-07T15:38:07.170Z,11.25
2019-06-07T15:40:39.471Z,12.23
2019-06-07T15:43:09.613Z,10.23
2019-06-07T15:45:41.074Z,19.80
2019-06-07T15:48:11.604Z,8.78
2019-06-07T15:50:41.975Z,9.33
2019-06-07T15:53:12.362Z,18.12
2019-06-07T15:55:45.612Z,14.07
2019-06-07T15:58:14.970Z,7.03
2019-06-07T16:00:45.381Z,18.52
2019-06-07T16:03:15.771Z,10.13
2019-06-07T16:05:46.199Z,11.48
2019-06-07T16:08:16.660Z,10.28
2019-06-07T16:10:47.071Z,14.13
2019-06-07T16:13:17.499Z,16.48
2019-06-07T16:15:47.873Z,12.88
2019-06-07T16:18:18.277Z,20.52
2019-06-07T16:20:48.669Z,12.53
2019-06-07T16:23:20.932Z,20.97
2019-06-07T16:25:51.609Z,11.75
2019-06-07T16:28:21.997Z,14.93
2019-06-07T16:30:52.336Z,13.85
2019-06-07T16:33:22.847Z,12.40
2019-06-07T16:35:53.138Z,12.60
2019-06-07T16:38:23.487Z,12.05
2019-06-07T16:40:53.904Z,11.95
2019-06-07T16:43:24.302Z,17.48
2019-06-07T16:45:54.631Z,14.93
2019-06-07T16:48:25.009Z,21.37
2019-06-07T16:50:56.563Z,10.70
2019-06-07T16:53:27.013Z,11.25
2019-06-07T16:55:57.407Z,10.43
2019-06-07T16:58:27.771Z,11.90
2019-06-07T17:00:59.473Z,14.60
2019-06-07T17:03:29.835Z,17.02
2019-06-07T17:06:00.231Z,14.30
2019-06-07T17:08:30.634Z,15.40
2019-06-07T17:11:01.066Z,7.95
2019-06-07T17:13:33.876Z,13.58
2019-06-07T17:16:03.569Z,9.50
2019-06-07T17:18:36.985Z,11.97
2019-06-07T17:21:05.952Z,8.68
2019-06-07T17:23:36.334Z,19.02
2019-06-07T17:26:06.723Z,9.48
2019-06-07T17:28:37.123Z,9.03
2019-06-07T17:31:07.753Z,10.63
2019-06-07T17:33:38.127Z,9.98
2019-06-07T17:36:08.462Z,13.00
2019-06-07T17:38:38.857Z,11.05
2019-06-07T17:41:09.228Z,10.35
2019-06-07T17:43:50.533Z,26.85
2019-06-07T17:46:12.055Z,15.38
2019-06-07T17:48:43.510Z,19.92
2019-06-07T17:51:13.989Z,10.60
2019-06-07T17:53:45.734Z,17.60
2019-06-07T17:56:16.335Z,14.50
2019-06-07T17:58:46.963Z,12.60
2019-06-07T18:01:17.353Z,16.27
2019-06-07T18:03:49.203Z,24.47
2019-06-07T18:06:21.065Z,19.20
2019-06-07T18:08:53.812Z,12.18
2019-06-07T18:11:24.131Z,17.40
2019-06-07T18:14:08.515Z,13.70
2019-06-07T18:16:26.591Z,12.80
2019-06-07T18:18:56.978Z,22.25
2019-06-07T18:21:27.356Z,19.10
2019-06-07T18:23:58.647Z,13.65
2019-06-07T18:26:29.346Z,17.48
2019-06-07T18:28:59.727Z,21.15
2019-06-07T18:31:30.298Z,31.25
2019-06-07T18:34:01.630Z,15.20
2019-06-07T18:36:31.999Z,19.77
2019-06-07T18:39:02.486Z,17.15
2019-06-07T18:41:34.646Z,17.80
2019-06-07T18:44:20.492Z,21.15
2019-06-07T18:46:37.523Z,19.48
2019-06-07T18:49:07.890Z,18.17
2019-06-07T18:51:38.523Z,14.18
2019-06-07T18:54:08.907Z,18.00
2019-06-07T18:56:39.294Z,21.50
2019-06-07T18:59:09.678Z,79.82
2019-06-07T19:01:40.035Z,18.45
2019-06-07T19:04:10.506Z,15.40
2019-06-07T19:06:42.289Z,18.90
2019-06-07T19:09:12.735Z,18.10
2019-06-07T19:11:43.079Z,25.00
2019-06-07T19:14:13.523Z,15.95
2019-06-07T19:16:44.119Z,18.48
2019-06-07T19:19:14.604Z,20.70
2019-06-07T19:21:45.162Z,17.70
2019-06-07T19:24:15.555Z,12.95
2019-06-07T19:26:45.976Z,15.35
2019-06-07T19:29:16.384Z,17.73
2019-06-07T19:31:46.785Z,21.65
2019-06-07T19:34:19.358Z,12.98
2019-06-07T19:36:49.888Z,18.67
2019-06-07T19:39:20.316Z,22.58
2019-06-07T19:41:51.810Z,22.80
2019-06-07T19:44:22.485Z,20.62
2019-06-07T19:46:54.257Z,23.90
2019-06-07T19:49:25.844Z,20.52
2019-06-07T19:51:56.964Z,29.77
2019-06-07T19:54:27.721Z,16.85
2019-06-07T19:56:59.410Z,20.55
2019-06-07T19:59:29.906Z,22.22
2019-06-07T20:02:00.282Z,23.65
2019-06-07T20:04:30.769Z,21.62
2019-06-07T20:07:03.492Z,24.50
2019-06-07T20:09:34.020Z,19.30
2019-06-07T20:12:04.840Z,24.12
2019-06-07T20:14:35.207Z,30.05
2019-06-07T20:17:05.788Z,22.80
2019-06-07T20:19:36.144Z,23.45
2019-06-07T20:22:06.465Z,24.12
2019-06-07T20:24:38.171Z,28.57
2019-06-07T20:27:08.901Z,28.12
2019-06-07T20:29:39.262Z,19.32
2019-06-07T20:32:09.757Z,23.92
2019-06-07T20:34:44.137Z,25.48
2019-06-07T20:37:12.394Z,27.17
2019-06-07T20:39:42.904Z,27.02
2019-06-07T20:42:13.439Z,31.33
2019-06-07T20:44:43.817Z,26.68
2019-06-07T20:47:14.278Z,30.70
2019-06-07T20:49:44.633Z,26.90
2019-06-07T20:52:15.058Z,28.80
2019-06-07T20:54:45.436Z,25.52
2019-06-07T20:57:15.927Z,30.95
2019-06-07T20:59:46.768Z,32.13
2019-06-07T21:02:17.354Z,28.15
2019-06-07T21:04:47.796Z,35.65
2019-06-07T21:07:18.300Z,31.75
2019-06-07T21:09:48.730Z,30.00
2019-06-07T21:12:19.186Z,31.35
2019-06-07T21:14:49.615Z,28.35
2019-06-07T21:17:19.980Z,32.90
2019-06-07T21:19:50.363Z,32.58
2019-06-07T21:22:20.769Z,30.17
2019-06-07T21:24:51.286Z,30.45
2019-06-07T21:27:21.671Z,36.65
2019-06-07T21:29:52.131Z,29.32
2019-06-07T21:32:22.452Z,34.30
2019-06-07T21:34:52.789Z,30.48
2019-06-07T21:37:23.174Z,34.90
2019-06-07T21:39:53.600Z,29.90
2019-06-07T21:42:24.034Z,28.32
2019-06-07T21:44:54.561Z,29.32
2019-06-07T21:47:24.864Z,30.20
2019-06-07T21:49:55.352Z,32.25
2019-06-07T21:52:25.695Z,32.17
2019-06-07T21:54:56.104Z,31.93
2019-06-07T21:57:26.544Z,30.17
2019-06-07T21:59:56.952Z,26.62
2019-06-07T22:02:27.405Z,30.45
2019-06-07T22:04:57.818Z,30.08
2019-06-07T22:07:28.230Z,28.62
2019-06-07T22:09:58.652Z,30.20
2019-06-07T22:12:29.136Z,28.90
2019-06-07T22:14:59.578Z,34.55
2019-06-07T22:17:29.956Z,29.50
2019-06-07T22:20:00.281Z,33.55
2019-06-07T22:22:30.777Z,28.42
2019-06-07T22:25:01.185Z,36.20
2019-06-07T22:27:31.696Z,31.60
2019-06-07T22:30:02.091Z,40.43
2019-06-07T22:32:34.132Z,32.55
2019-06-07T22:35:04.630Z,31.27
2019-06-07T22:37:35.052Z,36.13
2019-06-07T22:40:06.311Z,35.10
2019-06-07T22:42:36.800Z,36.30
2019-06-07T22:45:08.168Z,34.35
2019-06-07T22:47:38.731Z,34.08
2019-06-07T22:50:10.834Z,39.13
2019-06-07T22:52:41.486Z,36.80
2019-06-07T22:55:13.838Z,35.88
2019-06-07T22:57:58.426Z,34.35
2019-06-07T23:00:30.800Z,29.65
2019-06-07T23:03:01.227Z,31.37
2019-06-07T23:05:31.793Z,32.75
2019-06-07T23:08:02.484Z,33.35
2019-06-07T23:10:32.844Z,33.20
2019-06-07T23:13:03.560Z,38.20
2019-06-07T23:15:34.072Z,39.13
2019-06-07T23:18:04.494Z,38.55
2019-06-07T23:20:34.913Z,36.42
2019-06-07T23:23:05.272Z,42.62
2019-06-07T23:25:35.736Z,35.60
2019-06-07T23:28:06.204Z,39.58
2019-06-07T23:30:36.672Z,47.53
2019-06-07T23:33:07.064Z,39.60
2019-06-07T23:35:37.438Z,46.63
2019-06-07T23:38:07.809Z,41.85
2019-06-07T23:40:38.228Z,47.43
2019-06-07T23:43:08.672Z,41.48
2019-06-07T23:45:39.085Z,39.00
2019-06-07T23:48:09.486Z,51.83
2019-06-07T23:50:41.036Z,55.38
2019-06-07T23:53:11.825Z,49.60
2019-06-07T23:55:42.366Z,44.63
2019-06-07T23:58:13.865Z,43.45
